createdAt,value
2023-05-04T00:00:09.116Z,25.78
2023-05-04T00:01:09.191Z,25.77
2023-05-04T00:02:09.239Z,25.77
2023-05-04T00:03:09.367Z,25.77
2023-05-04T00:04:09.447Z,25.78
2023-05-04T00:05:09.421Z,25.77
2023-05-04T00:06:09.488Z,25.77
2023-05-04T00:07:09.540Z,25.77
2023-05-04T00:08:09.609Z,25.76
2023-05-04T00:09:09.638Z,25.77
2023-05-04T00:10:09.692Z,25.77
2023-05-04T00:11:09.772Z,25.77
2023-05-04T00:12:09.886Z,25.77
2023-05-04T00:13:09.940Z,25.77
2023-05-04T00:14:09.932Z,25.77
2023-05-04T00:15:10.000Z,25.77
2023-05-04T00:16:11.163Z,25.77
2023-05-04T00:17:10.092Z,25.77
2023-05-04T00:18:10.135Z,25.76
2023-05-04T00:19:10.201Z,25.76
2023-05-04T00:20:10.264Z,25.76
2023-05-04T00:21:10.333Z,25.76
2023-05-04T00:22:10.378Z,25.76
2023-05-04T00:23:10.440Z,25.77
2023-05-04T00:24:10.480Z,25.77
2023-05-04T00:25:10.548Z,25.76
2023-05-04T00:26:10.637Z,25.76
2023-05-04T00:27:10.677Z,25.76
2023-05-04T00:28:10.754Z,25.76
2023-05-04T00:29:10.789Z,25.75
2023-05-04T00:30:10.862Z,25.76
2023-05-04T00:31:10.962Z,25.77
2023-05-04T00:32:10.967Z,25.77
2023-05-04T00:33:11.017Z,25.77
2023-05-04T00:34:11.108Z,25.77
2023-05-04T00:35:11.163Z,25.77
2023-05-04T00:36:11.237Z,25.76
2023-05-04T00:37:11.266Z,25.77
2023-05-04T00:38:11.320Z,25.77
2023-05-04T00:39:11.378Z,25.77
2023-05-04T00:40:11.458Z,25.77
2023-05-04T00:41:11.505Z,25.76
2023-05-04T00:42:11.550Z,25.76
2023-05-04T00:43:11.615Z,25.77
2023-05-04T00:44:11.684Z,25.77
2023-05-04T00:45:11.742Z,25.76
2023-05-04T00:46:11.785Z,25.77
2023-05-04T00:47:11.956Z,25.77
2023-05-04T00:48:11.931Z,25.77
2023-05-04T00:49:11.963Z,25.77
2023-05-04T00:50:12.018Z,25.77
2023-05-04T00:51:12.104Z,25.76
2023-05-04T00:52:12.117Z,25.76
2023-05-04T00:53:12.178Z,25.76
2023-05-04T00:54:12.246Z,25.75
2023-05-04T00:55:12.292Z,25.76
2023-05-04T00:56:12.364Z,25.76
2023-05-04T00:57:12.415Z,25.76
2023-05-04T00:58:12.475Z,25.77
2023-05-04T00:59:12.533Z,25.76
2023-05-04T01:00:12.613Z,25.77
2023-05-04T01:01:12.705Z,25.75
2023-05-04T01:02:12.740Z,25.76
2023-05-04T01:03:12.866Z,25.76
2023-05-04T01:04:12.903Z,25.76
2023-05-04T01:05:12.906Z,25.75
2023-05-04T01:06:12.982Z,25.76
2023-05-04T01:07:13.048Z,25.75
2023-05-04T01:08:13.112Z,25.76
2023-05-04T01:09:13.153Z,25.75
2023-05-04T01:10:13.225Z,25.76
2023-05-04T01:11:13.293Z,25.76
2023-05-04T01:12:13.333Z,25.76
2023-05-04T01:13:13.509Z,25.76
2023-05-04T01:14:13.461Z,25.76
2023-05-04T01:15:13.524Z,25.76
2023-05-04T01:16:13.620Z,25.76
2023-05-04T01:17:13.726Z,25.76
2023-05-04T01:18:13.742Z,25.76
2023-05-04T01:19:13.764Z,25.76
2023-05-04T01:20:13.802Z,25.76
2023-05-04T01:21:13.860Z,25.76
2023-05-04T01:22:13.925Z,25.75
2023-05-04T01:23:13.973Z,25.76
2023-05-04T01:24:14.041Z,25.76
2023-05-04T01:25:14.096Z,25.76
2023-05-04T01:26:14.144Z,25.75
2023-05-04T01:27:14.203Z,25.76
2023-05-04T01:28:14.277Z,25.76
2023-05-04T01:29:14.339Z,25.75
2023-05-04T01:30:14.417Z,25.76
2023-05-04T01:31:14.477Z,25.76
2023-05-04T01:32:14.521Z,25.75
2023-05-04T01:33:14.570Z,25.76
2023-05-04T01:34:14.601Z,25.76
2023-05-04T01:35:14.795Z,25.76
2023-05-04T01:36:14.737Z,25.76
2023-05-04T01:37:14.813Z,25.76
2023-05-04T01:38:14.844Z,25.76
2023-05-04T01:39:14.917Z,25.76
2023-05-04T01:40:14.971Z,25.76
2023-05-04T01:41:15.022Z,25.76
2023-05-04T01:42:15.083Z,25.76
2023-05-04T01:43:15.165Z,25.76
2023-05-04T01:44:15.199Z,25.75
2023-05-04T01:45:15.281Z,25.76
2023-05-04T01:46:15.378Z,25.76
2023-05-04T01:47:15.388Z,25.76
2023-05-04T01:48:15.448Z,25.76
2023-05-04T01:49:15.524Z,25.75
2023-05-04T01:50:15.574Z,25.75
2023-05-04T01:51:15.608Z,25.76
2023-05-04T01:52:15.674Z,25.75
2023-05-04T01:53:15.756Z,25.76
2023-05-04T01:54:15.792Z,25.76
2023-05-04T01:55:15.844Z,25.76
2023-05-04T01:56:15.900Z,25.76
2023-05-04T01:57:16.004Z,25.76
2023-05-04T01:58:16.016Z,25.75
2023-05-04T01:59:16.113Z,25.76
2023-05-04T02:00:16.157Z,25.76
2023-05-04T02:01:16.231Z,25.76
2023-05-04T02:02:16.248Z,25.76
2023-05-04T02:03:16.449Z,25.76
2023-05-04T02:04:16.381Z,25.76
2023-05-04T02:05:16.429Z,25.76
2023-05-04T02:06:16.502Z,25.76
2023-05-04T02:07:16.556Z,25.76
2023-05-04T02:08:16.609Z,25.76
2023-05-04T02:09:16.656Z,25.76
2023-05-04T02:10:16.712Z,25.76
2023-05-04T02:11:16.759Z,25.76
2023-05-04T02:12:16.832Z,25.76
2023-05-04T02:13:16.991Z,25.76
2023-05-04T02:14:16.943Z,25.76
2023-05-04T02:15:16.998Z,25.76
2023-05-04T02:16:17.152Z,25.75
2023-05-04T02:17:17.138Z,25.76
2023-05-04T02:18:17.186Z,25.76
2023-05-04T02:19:17.229Z,25.76
2023-05-04T02:20:17.274Z,25.76
2023-05-04T02:21:17.329Z,25.76
2023-05-04T02:22:17.388Z,25.75
2023-05-04T02:23:17.468Z,25.75
2023-05-04T02:24:17.515Z,25.76
2023-05-04T02:25:17.580Z,25.75
2023-05-04T02:26:17.633Z,25.76
2023-05-04T02:27:17.702Z,25.75
2023-05-04T02:28:17.738Z,25.76
2023-05-04T02:29:17.816Z,25.75
2023-05-04T02:30:17.879Z,25.76
2023-05-04T02:31:17.953Z,25.76
2023-05-04T02:32:17.978Z,25.75
2023-05-04T02:33:18.049Z,25.75
2023-05-04T02:34:18.106Z,25.75
2023-05-04T02:35:18.173Z,25.75
2023-05-04T02:36:18.220Z,25.75
2023-05-04T02:37:18.286Z,25.76
2023-05-04T02:38:18.365Z,25.75
2023-05-04T02:39:18.417Z,25.75
2023-05-04T02:40:18.478Z,25.75
2023-05-04T02:41:18.542Z,25.75
2023-05-04T02:42:18.580Z,25.75
2023-05-04T02:43:18.644Z,25.75
2023-05-04T02:44:18.704Z,25.75
2023-05-04T02:45:18.764Z,25.74
2023-05-04T02:46:18.954Z,25.75
2023-05-04T02:47:18.886Z,25.75
2023-05-04T02:48:18.953Z,25.76
2023-05-04T02:49:19.024Z,25.76
2023-05-04T02:50:19.059Z,25.75
2023-05-04T02:51:19.117Z,25.75
2023-05-04T02:52:19.189Z,25.75
2023-05-04T02:53:19.241Z,25.75
2023-05-04T02:54:19.305Z,25.75
2023-05-04T02:55:19.352Z,25.75
2023-05-04T02:56:19.414Z,25.76
2023-05-04T02:57:19.494Z,25.76
2023-05-04T02:58:19.550Z,25.75
2023-05-04T02:59:19.613Z,25.75
2023-05-04T03:00:19.684Z,25.75
2023-05-04T03:01:19.757Z,25.75
2023-05-04T03:02:19.782Z,25.76
2023-05-04T03:03:19.837Z,25.76
2023-05-04T03:04:19.989Z,25.75
2023-05-04T03:05:19.983Z,25.75
2023-05-04T03:06:20.017Z,25.76
2023-05-04T03:07:20.087Z,25.76
2023-05-04T03:08:20.126Z,25.76
2023-05-04T03:09:20.203Z,25.75
2023-05-04T03:10:20.243Z,25.75
2023-05-04T03:11:20.319Z,25.76
2023-05-04T03:12:20.384Z,25.75
2023-05-04T03:13:20.426Z,25.76
2023-05-04T03:14:20.493Z,25.75
2023-05-04T03:15:20.537Z,25.75
2023-05-04T03:16:20.669Z,25.75
2023-05-04T03:17:20.668Z,25.75
2023-05-04T03:18:20.712Z,25.75
2023-05-04T03:19:20.786Z,25.76
2023-05-04T03:20:20.898Z,25.75
2023-05-04T03:21:20.967Z,25.75
2023-05-04T03:22:20.989Z,25.75
2023-05-04T03:23:21.024Z,25.75
2023-05-04T03:24:21.089Z,25.76
2023-05-04T03:25:21.157Z,25.75
2023-05-04T03:26:21.231Z,25.75
2023-05-04T03:27:21.273Z,25.76
2023-05-04T03:28:21.335Z,25.76
2023-05-04T03:29:21.383Z,25.76
2023-05-04T03:30:21.441Z,25.76
2023-05-04T03:31:21.540Z,25.75
2023-05-04T03:32:21.538Z,25.75
2023-05-04T03:33:21.599Z,25.75
2023-05-04T03:34:21.836Z,25.75
2023-05-04T03:35:24.882Z,25.76
2023-05-04T03:36:21.698Z,25.75
2023-05-04T03:37:21.719Z,25.75
2023-05-04T03:38:21.669Z,25.75
2023-05-04T03:39:21.668Z,25.76
2023-05-04T03:40:21.669Z,25.75
2023-05-04T03:41:21.682Z,25.75
2023-05-04T03:42:21.642Z,25.76
2023-05-04T03:43:21.636Z,25.75
2023-05-04T03:44:21.645Z,25.76
2023-05-04T03:45:21.735Z,25.75
2023-05-04T03:46:21.667Z,25.75
2023-05-04T03:47:21.605Z,25.75
2023-05-04T03:48:21.608Z,25.75
2023-05-04T03:49:21.605Z,25.75
2023-05-04T03:50:21.593Z,25.75
2023-05-04T03:51:21.574Z,25.75
2023-05-04T03:52:21.581Z,25.75
2023-05-04T03:53:21.573Z,25.75
2023-05-04T03:54:21.578Z,25.76
2023-05-04T03:55:21.553Z,25.75
2023-05-04T03:56:21.536Z,25.76
2023-05-04T03:57:21.562Z,25.76
2023-05-04T03:58:21.514Z,25.75
2023-05-04T03:59:21.509Z,25.75
2023-05-04T04:00:21.542Z,25.75
2023-05-04T04:01:21.513Z,25.75
2023-05-04T04:02:21.600Z,25.75
2023-05-04T04:03:21.721Z,25.76
2023-05-04T04:04:21.677Z,25.75
2023-05-04T04:05:21.616Z,25.75
2023-05-04T04:06:21.672Z,25.75
2023-05-04T04:07:21.761Z,25.75
2023-05-04T04:08:21.809Z,25.75
2023-05-04T04:09:21.858Z,25.75
2023-05-04T04:10:21.905Z,25.75
2023-05-04T04:11:21.958Z,25.75
2023-05-04T04:12:22.009Z,25.75
2023-05-04T04:13:22.160Z,25.75
2023-05-04T04:14:22.139Z,25.75
2023-05-04T04:15:22.183Z,25.75
2023-05-04T04:16:22.369Z,25.75
2023-05-04T04:17:22.336Z,25.75
2023-05-04T04:18:22.381Z,25.76
2023-05-04T04:19:22.443Z,25.75
2023-05-04T04:20:22.487Z,25.76
2023-05-04T04:21:22.535Z,25.76
2023-05-04T04:22:22.620Z,25.75
2023-05-04T04:23:22.643Z,25.75
2023-05-04T04:24:22.696Z,25.76
2023-05-04T04:25:22.758Z,25.76
2023-05-04T04:26:22.830Z,25.75
2023-05-04T04:27:22.888Z,25.76
2023-05-04T04:28:22.965Z,25.76
2023-05-04T04:29:23.016Z,25.75
2023-05-04T04:30:23.083Z,25.75
2023-05-04T04:31:23.177Z,25.76
2023-05-04T04:32:23.261Z,25.75
2023-05-04T04:33:23.328Z,25.76
2023-05-04T04:34:23.318Z,25.76
2023-05-04T04:35:23.405Z,25.76
2023-05-04T04:36:23.427Z,25.75
2023-05-04T04:37:23.482Z,25.76
2023-05-04T04:38:23.532Z,25.77
2023-05-04T04:39:23.692Z,25.76
2023-05-04T04:40:23.667Z,25.77
2023-05-04T04:41:23.715Z,25.76
2023-05-04T04:42:23.779Z,25.75
2023-05-04T04:43:23.831Z,25.76
2023-05-04T04:44:23.904Z,25.76
2023-05-04T04:45:23.951Z,25.76
2023-05-04T04:46:24.103Z,25.77
2023-05-04T04:47:24.137Z,25.77
2023-05-04T04:48:24.122Z,25.76
2023-05-04T04:49:24.197Z,25.76
2023-05-04T04:50:24.261Z,25.76
2023-05-04T04:51:24.310Z,25.76
2023-05-04T04:52:24.371Z,25.77
2023-05-04T04:53:24.430Z,25.76
2023-05-04T04:54:24.465Z,25.77
2023-05-04T04:55:24.553Z,25.79
2023-05-04T04:56:24.605Z,25.80
2023-05-04T04:57:24.672Z,25.83
2023-05-04T04:58:24.703Z,25.85
2023-05-04T04:59:24.825Z,25.87
2023-05-04T05:00:24.819Z,25.86
2023-05-04T05:01:24.921Z,25.84
2023-05-04T05:02:24.994Z,25.83
2023-05-04T05:03:24.995Z,25.82
2023-05-04T05:04:25.103Z,25.81
2023-05-04T05:05:25.136Z,25.80
2023-05-04T05:06:25.168Z,25.81
2023-05-04T05:07:25.260Z,25.80
2023-05-04T05:08:25.307Z,25.80
2023-05-04T05:09:25.355Z,25.80
2023-05-04T05:10:25.415Z,25.81
2023-05-04T05:11:25.492Z,25.80
2023-05-04T05:12:25.541Z,25.80
2023-05-04T05:13:25.583Z,25.81
2023-05-04T05:14:25.654Z,25.81
2023-05-04T05:15:25.713Z,25.81
2023-05-04T05:16:25.831Z,25.81
2023-05-04T05:17:25.848Z,25.81
2023-05-04T05:18:25.880Z,25.81
2023-05-04T05:19:25.935Z,25.81
2023-05-04T05:20:25.978Z,25.81
2023-05-04T05:21:26.079Z,25.82
2023-05-04T05:22:26.134Z,25.82
2023-05-04T05:23:26.163Z,25.84
2023-05-04T05:24:26.215Z,25.85
2023-05-04T05:25:26.264Z,25.85
2023-05-04T05:26:26.330Z,25.85
2023-05-04T05:27:26.756Z,25.86
2023-05-04T05:28:26.428Z,25.85
2023-05-04T05:29:26.478Z,25.83
2023-05-04T05:30:26.521Z,25.81
2023-05-04T05:31:26.701Z,25.80
2023-05-04T05:32:26.701Z,25.79
2023-05-04T05:33:26.708Z,25.80
2023-05-04T05:34:26.751Z,25.80
2023-05-04T05:35:26.820Z,25.81
2023-05-04T05:36:26.878Z,25.81
2023-05-04T05:37:27.338Z,25.81
2023-05-04T05:38:26.984Z,25.80
2023-05-04T05:39:27.022Z,25.80
2023-05-04T05:40:27.203Z,25.79
2023-05-04T05:41:27.154Z,25.78
2023-05-04T05:42:27.249Z,25.77
2023-05-04T05:43:27.259Z,25.75
2023-05-04T05:44:27.306Z,25.74
2023-05-04T05:45:27.358Z,25.75
2023-05-04T05:46:27.449Z,25.76
2023-05-04T05:47:27.521Z,25.78
2023-05-04T05:48:27.562Z,25.80
2023-05-04T05:49:27.566Z,25.83
2023-05-04T05:50:27.615Z,25.86
2023-05-04T05:51:27.638Z,25.89
2023-05-04T05:52:27.669Z,25.93
2023-05-04T05:53:27.701Z,25.95
2023-05-04T05:54:27.716Z,25.98
2023-05-04T05:55:27.739Z,26.00
2023-05-04T05:56:27.765Z,26.02
2023-05-04T05:57:27.790Z,26.05
2023-05-04T05:58:27.819Z,26.07
2023-05-04T05:59:27.829Z,26.09
2023-05-04T06:00:27.840Z,26.11
2023-05-04T06:01:27.861Z,26.12
2023-05-04T06:02:27.947Z,26.14
2023-05-04T06:03:28.080Z,26.13
2023-05-04T06:04:27.920Z,26.13
2023-05-04T06:05:27.905Z,26.15
2023-05-04T06:06:27.924Z,26.17
2023-05-04T06:07:27.955Z,26.18
2023-05-04T06:08:27.972Z,26.21
2023-05-04T06:09:27.970Z,26.22
2023-05-04T06:10:27.988Z,26.24
2023-05-04T06:11:27.998Z,26.24
2023-05-04T06:12:28.057Z,26.26
2023-05-04T06:13:28.031Z,26.27
2023-05-04T06:14:28.039Z,26.29
2023-05-04T06:15:28.044Z,26.31
2023-05-04T06:16:28.079Z,26.31
2023-05-04T06:17:28.058Z,26.32
2023-05-04T06:18:28.087Z,26.33
2023-05-04T06:19:29.627Z,26.34
2023-05-04T06:20:28.074Z,26.35
2023-05-04T06:21:28.050Z,26.35
2023-05-04T06:22:28.040Z,26.36
2023-05-04T06:23:28.036Z,26.37
2023-05-04T06:24:28.034Z,26.38
2023-05-04T06:25:28.009Z,26.38
2023-05-04T06:26:28.015Z,26.40
2023-05-04T06:27:28.009Z,26.40
2023-05-04T06:28:28.010Z,26.39
2023-05-04T06:29:27.998Z,26.35
2023-05-04T06:30:28.023Z,26.33
2023-05-04T06:31:28.022Z,26.34
2023-05-04T06:32:28.283Z,26.32
2023-05-04T06:33:27.966Z,26.30
2023-05-04T06:34:27.952Z,26.25
2023-05-04T06:35:27.956Z,26.18
2023-05-04T06:36:27.956Z,26.12
2023-05-04T06:37:28.258Z,26.01
2023-05-04T06:38:27.942Z,25.94
2023-05-04T06:39:27.914Z,25.86
2023-05-04T06:40:27.922Z,25.83
2023-05-04T06:41:27.923Z,25.81
2023-05-04T06:42:27.908Z,25.81
2023-05-04T06:43:27.905Z,25.81
2023-05-04T06:44:27.906Z,25.81
2023-05-04T06:45:27.964Z,25.82
2023-05-04T06:46:27.865Z,25.85
2023-05-04T06:47:27.881Z,25.88
2023-05-04T06:48:27.861Z,25.90
2023-05-04T06:49:27.843Z,25.93
2023-05-04T06:50:27.845Z,25.95
2023-05-04T06:51:27.837Z,25.98
2023-05-04T06:52:27.822Z,26.01
2023-05-04T06:53:27.822Z,26.02
2023-05-04T06:54:27.811Z,26.05
2023-05-04T06:55:27.821Z,26.07
2023-05-04T06:56:27.799Z,26.08
2023-05-04T06:57:27.801Z,26.10
2023-05-04T06:58:27.785Z,26.13
2023-05-04T06:59:27.796Z,26.15
2023-05-04T07:00:27.806Z,26.15
2023-05-04T07:01:27.773Z,26.16
2023-05-04T07:02:27.810Z,26.17
2023-05-04T07:03:27.769Z,26.17
2023-05-04T07:04:27.755Z,26.18
2023-05-04T07:05:27.743Z,26.20
2023-05-04T07:06:27.734Z,26.22
2023-05-04T07:07:27.736Z,26.24
2023-05-04T07:08:27.736Z,26.25
2023-05-04T07:09:27.718Z,26.27
2023-05-04T07:10:27.699Z,26.29
2023-05-04T07:11:27.710Z,26.31
2023-05-04T07:12:27.742Z,26.32
2023-05-04T07:13:27.688Z,26.33
2023-05-04T07:14:27.669Z,26.34
2023-05-04T07:15:27.668Z,26.36
2023-05-04T07:16:27.728Z,26.37
2023-05-04T07:17:27.821Z,26.38
2023-05-04T07:18:27.651Z,26.40
2023-05-04T07:19:27.645Z,26.41
2023-05-04T07:20:27.671Z,26.42
2023-05-04T07:21:29.375Z,26.43
2023-05-04T07:22:27.614Z,26.45
2023-05-04T07:23:27.620Z,26.46
2023-05-04T07:24:27.610Z,26.47
2023-05-04T07:25:27.621Z,26.47
2023-05-04T07:26:27.603Z,26.50
2023-05-04T07:27:27.776Z,26.52
2023-05-04T07:28:27.587Z,26.51
2023-05-04T07:29:27.572Z,26.42
2023-05-04T07:30:27.570Z,26.31
2023-05-04T07:31:30.093Z,26.25
2023-05-04T07:32:27.800Z,26.23
2023-05-04T07:33:27.531Z,26.21
2023-05-04T07:34:41.821Z,26.21
2023-05-04T07:35:28.532Z,26.19
2023-05-04T07:36:27.513Z,26.22
2023-05-04T07:37:27.794Z,26.23
2023-05-04T07:38:27.512Z,26.25
2023-05-04T07:39:27.490Z,26.26
2023-05-04T07:40:27.507Z,26.29
2023-05-04T07:41:27.476Z,26.31
2023-05-04T07:42:28.005Z,26.32
2023-05-04T07:43:27.484Z,26.26
2023-05-04T07:44:27.460Z,26.25
2023-05-04T07:45:27.485Z,26.25
2023-05-04T07:46:27.465Z,26.25
2023-05-04T07:47:27.786Z,26.26
2023-05-04T07:48:27.794Z,26.27
2023-05-04T07:49:27.424Z,26.29
2023-05-04T07:50:27.411Z,26.30
2023-05-04T07:51:27.393Z,26.33
2023-05-04T07:52:27.386Z,26.36
2023-05-04T07:53:27.788Z,26.39
2023-05-04T07:54:27.383Z,26.41
2023-05-04T07:55:27.387Z,26.43
2023-05-04T07:56:27.358Z,26.45
2023-05-04T07:57:27.801Z,26.48
2023-05-04T07:58:27.786Z,26.50
2023-05-04T07:59:27.347Z,26.53
2023-05-04T08:00:27.363Z,26.54
2023-05-04T08:01:27.349Z,26.57
2023-05-04T08:02:27.400Z,26.59
2023-05-04T08:03:27.336Z,26.61
2023-05-04T08:04:27.303Z,26.62
2023-05-04T08:05:27.343Z,26.64
2023-05-04T08:06:27.359Z,26.66
2023-05-04T08:07:27.390Z,26.69
2023-05-04T08:08:27.523Z,26.70
2023-05-04T08:09:27.529Z,26.72
2023-05-04T08:10:27.553Z,26.74
2023-05-04T08:11:27.851Z,26.75
2023-05-04T08:12:27.691Z,26.76
2023-05-04T08:13:27.739Z,26.77
2023-05-04T08:14:27.820Z,26.76
2023-05-04T08:15:27.847Z,26.78
2023-05-04T08:16:27.924Z,26.79
2023-05-04T08:17:27.995Z,26.79
2023-05-04T08:18:28.048Z,26.80
2023-05-04T08:19:28.100Z,26.81
2023-05-04T08:20:28.151Z,26.81
2023-05-04T08:21:28.210Z,26.80
2023-05-04T08:22:28.264Z,26.77
2023-05-04T08:23:28.817Z,26.76
2023-05-04T08:24:28.375Z,26.73
2023-05-04T08:25:28.386Z,26.70
2023-05-04T08:26:28.375Z,26.66
2023-05-04T08:27:28.819Z,26.63
2023-05-04T08:28:28.383Z,26.62
2023-05-04T08:29:28.400Z,26.60
2023-05-04T08:30:28.387Z,26.58
2023-05-04T08:31:28.421Z,26.57
2023-05-04T08:32:28.418Z,26.56
2023-05-04T08:33:28.391Z,26.55
2023-05-04T08:34:28.399Z,26.55
2023-05-04T08:35:28.431Z,26.55
2023-05-04T08:36:28.443Z,26.53
2023-05-04T08:37:28.492Z,26.52
2023-05-04T08:38:28.512Z,26.51
2023-05-04T08:39:28.561Z,26.51
2023-05-04T08:40:28.584Z,26.50
2023-05-04T08:41:28.646Z,26.50
2023-05-04T08:42:28.659Z,26.52
2023-05-04T08:43:28.818Z,26.53
2023-05-04T08:44:28.729Z,26.54
2023-05-04T08:45:28.808Z,26.56
2023-05-04T08:46:28.793Z,26.58
2023-05-04T08:47:28.844Z,26.59
2023-05-04T08:48:28.844Z,26.59
2023-05-04T08:49:28.878Z,26.62
2023-05-04T08:50:28.899Z,26.65
2023-05-04T08:51:28.919Z,26.68
2023-05-04T08:52:28.914Z,26.69
2023-05-04T08:53:28.917Z,26.70
2023-05-04T08:54:28.926Z,26.72
2023-05-04T08:55:28.957Z,26.73
2023-05-04T08:56:28.959Z,26.77
2023-05-04T08:57:28.942Z,26.80
2023-05-04T08:58:28.943Z,26.80
2023-05-04T08:59:28.936Z,26.82
2023-05-04T09:00:29.004Z,26.82
2023-05-04T09:01:29.006Z,26.81
2023-05-04T09:02:29.002Z,26.83
2023-05-04T09:03:29.042Z,26.83
2023-05-04T09:04:29.644Z,26.81
2023-05-04T09:05:28.995Z,26.80
2023-05-04T09:06:29.018Z,26.80
2023-05-04T09:07:29.028Z,26.79
2023-05-04T09:08:29.321Z,26.77
2023-05-04T09:09:29.095Z,26.73
2023-05-04T09:10:29.900Z,26.73
2023-05-04T09:11:29.086Z,26.71
2023-05-04T09:12:29.118Z,26.69
2023-05-04T09:13:29.126Z,26.66
2023-05-04T09:14:29.139Z,26.65
2023-05-04T09:15:29.142Z,26.64
2023-05-04T09:16:29.218Z,26.62
2023-05-04T09:17:29.240Z,26.62
2023-05-04T09:18:29.239Z,26.60
2023-05-04T09:19:29.226Z,26.59
2023-05-04T09:20:29.254Z,26.60
2023-05-04T09:21:29.277Z,26.60
2023-05-04T09:22:29.273Z,26.61
2023-05-04T09:23:29.371Z,26.62
2023-05-04T09:24:29.268Z,26.65
2023-05-04T09:25:29.288Z,26.68
2023-05-04T09:26:29.285Z,26.72
2023-05-04T09:27:29.307Z,26.73
2023-05-04T09:28:29.346Z,26.75
2023-05-04T09:29:29.288Z,26.75
2023-05-04T09:30:29.316Z,26.77
2023-05-04T09:31:29.318Z,26.80
2023-05-04T09:32:29.320Z,26.81
2023-05-04T09:33:29.291Z,26.82
2023-05-04T09:34:29.267Z,26.83
2023-05-04T09:35:33.291Z,26.83
2023-05-04T09:36:29.269Z,26.85
2023-05-04T09:37:29.242Z,26.88
2023-05-04T09:38:29.271Z,26.90
2023-05-04T09:39:29.248Z,26.93
2023-05-04T09:40:29.234Z,26.94
2023-05-04T09:41:29.240Z,26.95
2023-05-04T09:42:29.232Z,26.95
2023-05-04T09:43:29.201Z,26.97
2023-05-04T09:44:29.942Z,26.98
2023-05-04T09:45:29.198Z,27.00
2023-05-04T09:46:29.233Z,27.01
2023-05-04T09:47:29.207Z,27.03
2023-05-04T09:48:29.332Z,27.03
2023-05-04T09:49:29.197Z,27.05
2023-05-04T09:50:29.159Z,27.05
2023-05-04T09:51:29.161Z,27.07
2023-05-04T09:52:29.132Z,27.07
2023-05-04T09:53:29.359Z,27.07
2023-05-04T09:54:29.142Z,27.08
2023-05-04T09:55:29.142Z,27.09
2023-05-04T09:56:29.123Z,27.09
2023-05-04T09:57:29.089Z,27.08
2023-05-04T09:58:29.366Z,27.08
2023-05-04T09:59:29.115Z,27.09
2023-05-04T10:00:29.098Z,27.09
2023-05-04T10:01:29.147Z,27.10
2023-05-04T10:02:29.134Z,27.10
2023-05-04T10:03:29.043Z,27.10
2023-05-04T10:04:29.031Z,27.11
2023-05-04T10:05:29.113Z,27.11
2023-05-04T10:06:29.048Z,27.11
2023-05-04T10:07:29.135Z,27.11
2023-05-04T10:08:29.027Z,27.11
2023-05-04T10:09:29.049Z,27.12
2023-05-04T10:10:29.065Z,27.14
2023-05-04T10:11:29.082Z,27.15
2023-05-04T10:12:29.092Z,27.15
2023-05-04T10:13:29.111Z,27.15
2023-05-04T10:14:29.109Z,27.15
2023-05-04T10:15:29.143Z,27.16
2023-05-04T10:16:29.247Z,27.17
2023-05-04T10:17:29.202Z,27.17
2023-05-04T10:18:29.252Z,27.17
2023-05-04T10:19:29.262Z,27.14
2023-05-04T10:20:29.314Z,27.13
2023-05-04T10:21:29.338Z,27.11
2023-05-04T10:22:29.333Z,27.10
2023-05-04T10:23:29.372Z,27.08
2023-05-04T10:24:29.370Z,27.06
2023-05-04T10:25:29.427Z,27.00
2023-05-04T10:26:29.334Z,26.98
2023-05-04T10:27:29.344Z,26.95
2023-05-04T10:28:29.357Z,26.95
2023-05-04T10:29:29.375Z,26.95
2023-05-04T10:30:29.366Z,26.96
2023-05-04T10:31:29.435Z,26.96
2023-05-04T10:32:29.490Z,26.98
2023-05-04T10:33:29.397Z,26.98
2023-05-04T10:34:29.869Z,26.99
2023-05-04T10:35:29.381Z,27.00
2023-05-04T10:36:29.378Z,27.01
2023-05-04T10:37:29.369Z,27.03
2023-05-04T10:38:29.358Z,27.04
2023-05-04T10:39:29.366Z,27.04
2023-05-04T10:40:29.359Z,27.04
2023-05-04T10:41:29.474Z,27.05
2023-05-04T10:42:29.368Z,27.06
2023-05-04T10:43:29.383Z,27.07
2023-05-04T10:44:29.859Z,27.08
2023-05-04T10:45:29.431Z,27.07
2023-05-04T10:46:29.463Z,27.11
2023-05-04T10:47:29.552Z,27.19
2023-05-04T10:48:29.583Z,27.24
2023-05-04T10:49:29.862Z,27.26
2023-05-04T10:50:29.702Z,27.29
2023-05-04T10:51:38.817Z,27.32
2023-05-04T10:52:30.738Z,27.32
2023-05-04T10:53:29.733Z,27.33
2023-05-04T10:54:29.879Z,27.34
2023-05-04T10:55:29.729Z,27.34
2023-05-04T10:56:29.703Z,27.35
2023-05-04T10:57:29.717Z,27.35
2023-05-04T10:58:29.695Z,27.36
2023-05-04T10:59:29.882Z,27.36
2023-05-04T11:00:29.718Z,27.36
2023-05-04T11:01:29.790Z,27.37
2023-05-04T11:02:31.079Z,27.36
2023-05-04T11:03:30.062Z,27.37
2023-05-04T11:04:29.863Z,27.37
2023-05-04T11:05:29.836Z,27.38
2023-05-04T11:06:29.820Z,27.39
2023-05-04T11:07:29.840Z,27.38
2023-05-04T11:08:29.805Z,27.41
2023-05-04T11:09:29.817Z,27.41
2023-05-04T11:10:29.783Z,27.41
2023-05-04T11:11:29.831Z,27.42
2023-05-04T11:12:29.806Z,27.41
2023-05-04T11:13:29.777Z,27.41
2023-05-04T11:14:29.877Z,27.41
2023-05-04T11:15:29.773Z,27.41
2023-05-04T11:16:29.840Z,27.41
2023-05-04T11:17:29.829Z,27.38
2023-05-04T11:18:29.878Z,27.30
2023-05-04T11:19:29.738Z,27.27
2023-05-04T11:20:29.710Z,27.23
2023-05-04T11:21:29.725Z,27.20
2023-05-04T11:22:29.716Z,27.19
2023-05-04T11:23:29.705Z,27.16
2023-05-04T11:24:29.699Z,27.15
2023-05-04T11:25:29.709Z,27.13
2023-05-04T11:26:29.687Z,27.12
2023-05-04T11:27:29.683Z,27.11
2023-05-04T11:28:29.680Z,27.10
2023-05-04T11:29:29.668Z,27.09
2023-05-04T11:30:29.659Z,27.08
2023-05-04T11:31:32.444Z,27.09
2023-05-04T11:32:29.647Z,27.08
2023-05-04T11:33:29.640Z,27.07
2023-05-04T11:34:29.640Z,27.05
2023-05-04T11:35:29.619Z,27.07
2023-05-04T11:36:29.604Z,27.07
2023-05-04T11:37:29.600Z,27.07
2023-05-04T11:38:29.610Z,27.09
2023-05-04T11:39:29.588Z,27.09
2023-05-04T11:40:29.578Z,27.09
2023-05-04T11:41:29.587Z,27.10
2023-05-04T11:42:29.551Z,27.10
2023-05-04T11:43:29.564Z,27.12
2023-05-04T11:44:29.560Z,27.12
2023-05-04T11:45:29.574Z,27.13
2023-05-04T11:46:29.589Z,27.13
2023-05-04T11:47:29.637Z,27.13
2023-05-04T11:48:29.527Z,27.14
2023-05-04T11:49:29.522Z,27.12
2023-05-04T11:50:29.518Z,27.12
2023-05-04T11:51:29.548Z,27.11
2023-05-04T11:52:29.490Z,27.11
2023-05-04T11:53:29.541Z,27.10
2023-05-04T11:54:29.509Z,27.10
2023-05-04T11:55:29.478Z,27.09
2023-05-04T11:56:29.470Z,27.09
2023-05-04T11:57:29.466Z,27.09
2023-05-04T11:58:29.484Z,27.08
2023-05-04T11:59:29.440Z,27.08
2023-05-04T12:00:29.450Z,27.06
2023-05-04T12:01:29.441Z,27.07
2023-05-04T12:02:29.461Z,27.07
2023-05-04T12:03:35.992Z,27.06
2023-05-04T12:04:30.426Z,27.05
2023-05-04T12:05:29.427Z,27.05
2023-05-04T12:06:29.402Z,27.05
2023-05-04T12:07:29.383Z,27.05
2023-05-04T12:08:29.372Z,27.05
2023-05-04T12:09:29.387Z,27.04
2023-05-04T12:10:29.366Z,27.04
2023-05-04T12:11:29.373Z,27.03
2023-05-04T12:12:30.218Z,27.03
2023-05-04T12:13:29.339Z,27.02
2023-05-04T12:14:29.366Z,27.02
2023-05-04T12:15:29.327Z,27.02
2023-05-04T12:16:29.337Z,27.00
2023-05-04T12:17:29.345Z,27.00
2023-05-04T12:18:29.438Z,27.00
2023-05-04T12:19:29.370Z,26.99
2023-05-04T12:20:29.373Z,26.99
2023-05-04T12:21:29.361Z,26.98
2023-05-04T12:22:29.377Z,26.98
2023-05-04T12:23:29.366Z,26.98
2023-05-04T12:24:29.386Z,26.97
2023-05-04T12:25:29.380Z,26.96
2023-05-04T12:26:29.380Z,26.95
2023-05-04T12:27:29.385Z,26.96
2023-05-04T12:28:29.365Z,26.92
2023-05-04T12:29:29.374Z,26.91
2023-05-04T12:30:29.340Z,26.91
2023-05-04T12:31:29.374Z,26.92
2023-05-04T12:32:29.391Z,26.92
2023-05-04T12:33:29.366Z,26.90
2023-05-04T12:34:29.372Z,26.84
2023-05-04T12:35:29.372Z,26.78
2023-05-04T12:36:29.353Z,26.67
2023-05-04T12:37:29.376Z,26.64
2023-05-04T12:38:29.363Z,26.65
2023-05-04T12:39:29.390Z,26.64
2023-05-04T12:40:29.397Z,26.66
2023-05-04T12:41:29.394Z,26.68
2023-05-04T12:42:29.407Z,26.69
2023-05-04T12:43:29.416Z,26.71
2023-05-04T12:44:29.433Z,26.72
2023-05-04T12:45:29.411Z,26.73
2023-05-04T12:46:29.485Z,26.73
2023-05-04T12:47:29.463Z,26.75
2023-05-04T12:48:29.449Z,26.75
2023-05-04T12:49:29.456Z,26.76
2023-05-04T12:50:29.454Z,26.78
2023-05-04T12:51:29.454Z,26.78
2023-05-04T12:52:29.470Z,26.79